sensor_id;sensor_type;location;lat;lon;timestamp;temperature;humidity
26537;DHT22;14204;51.262;5.488;2023-04-24T00:00:54;12.10;99.90
26537;DHT22;14204;51.262;5.488;2023-04-24T00:03:23;12.20;99.90
26537;DHT22;14204;51.262;5.488;2023-04-24T00:05:48;12.10;99.90
26537;DHT22;14204;51.262;5.488;2023-04-24T00:08:15;12.00;99.90
26537;DHT22;14204;51.262;5.488;2023-04-24T00:10:41;12.00;99.90
26537;DHT22;14204;51.262;5.488;2023-04-24T00:13:07;12.00;99.90
26537;DHT22;14204;51.262;5.488;2023-04-24T00:15:32;11.90;99.90
26537;DHT22;14204;51.262;5.488;2023-04-24T00:17:59;11.90;99.90
26537;DHT22;14204;51.262;5.488;2023-04-24T00:20:27;12.00;99.90
26537;DHT22;14204;51.262;5.488;2023-04-24T00:22:55;12.00;99.90
26537;DHT22;14204;51.262;5.488;2023-04-24T00:25:21;12.00;99.90
26537;DHT22;14204;51.262;5.488;2023-04-24T00:27:47;11.90;99.90
26537;DHT22;14204;51.262;5.488;2023-04-24T00:30:12;11.90;99.90
26537;DHT22;14204;51.262;5.488;2023-04-24T00:32:40;12.00;99.90
26537;DHT22;14204;51.262;5.488;2023-04-24T00:35:06;11.90;99.90
26537;DHT22;14204;51.262;5.488;2023-04-24T00:37:32;12.00;99.90
26537;DHT22;14204;51.262;5.488;2023-04-24T00:39:57;11.90;99.90
26537;DHT22;14204;51.262;5.488;2023-04-24T00:42:24;11.90;99.90
26537;DHT22;14204;51.262;5.488;2023-04-24T00:44:50;11.90;99.90
26537;DHT22;14204;51.262;5.488;2023-04-24T00:47:16;12.00;99.90
26537;DHT22;14204;51.262;5.488;2023-04-24T00:49:42;12.00;99.90
26537;DHT22;14204;51.262;5.488;2023-04-24T00:52:08;11.90;99.90
26537;DHT22;14204;51.262;5.488;2023-04-24T00:54:35;11.90;99.90
26537;DHT22;14204;51.262;5.488;2023-04-24T00:57:02;12.00;99.90
26537;DHT22;14204;51.262;5.488;2023-04-24T00:59:29;11.90;99.90
26537;DHT22;14204;51.262;5.488;2023-04-24T01:01:55;12.00;99.90
26537;DHT22;14204;51.262;5.488;2023-04-24T01:04:21;11.90;99.90
26537;DHT22;14204;51.262;5.488;2023-04-24T01:06:48;12.00;99.90
26537;DHT22;14204;51.262;5.488;2023-04-24T01:09:16;12.00;99.90
26537;DHT22;14204;51.262;5.488;2023-04-24T01:11:43;12.00;99.90
26537;DHT22;14204;51.262;5.488;2023-04-24T01:14:09;11.90;99.90
26537;DHT22;14204;51.262;5.488;2023-04-24T01:16:35;11.90;99.90
26537;DHT22;14204;51.262;5.488;2023-04-24T01:19:04;11.90;99.90
26537;DHT22;14204;51.262;5.488;2023-04-24T01:21:34;11.90;99.90
26537;DHT22;14204;51.262;5.488;2023-04-24T01:24:03;11.80;99.90
26537;DHT22;14204;51.262;5.488;2023-04-24T01:26:29;11.80;99.90
26537;DHT22;14204;51.262;5.488;2023-04-24T01:28:54;11.80;99.90
26537;DHT22;14204;51.262;5.488;2023-04-24T01:31:21;11.70;99.90
26537;DHT22;14204;51.262;5.488;2023-04-24T01:33:47;11.60;99.90
26537;DHT22;14204;51.262;5.488;2023-04-24T01:36:13;11.60;99.90
26537;DHT22;14204;51.262;5.488;2023-04-24T01:38:39;11.60;99.90
26537;DHT22;14204;51.262;5.488;2023-04-24T01:41:05;11.70;99.90
26537;DHT22;14204;51.262;5.488;2023-04-24T01:43:31;11.70;99.90
26537;DHT22;14204;51.262;5.488;2023-04-24T01:45:57;11.80;99.90
26537;DHT22;14204;51.262;5.488;2023-04-24T01:48:23;11.70;99.90
26537;DHT22;14204;51.262;5.488;2023-04-24T01:50:49;11.70;99.90
26537;DHT22;14204;51.262;5.488;2023-04-24T01:53:15;11.70;99.90
26537;DHT22;14204;51.262;5.488;2023-04-24T01:55:41;11.70;99.90
26537;DHT22;14204;51.262;5.488;2023-04-24T01:58:06;11.70;99.90
26537;DHT22;14204;51.262;5.488;2023-04-24T02:00:32;11.70;99.90
26537;DHT22;14204;51.262;5.488;2023-04-24T02:02:58;11.70;99.90
26537;DHT22;14204;51.262;5.488;2023-04-24T02:05:24;11.60;99.90
26537;DHT22;14204;51.262;5.488;2023-04-24T02:07:50;11.70;99.90
26537;DHT22;14204;51.262;5.488;2023-04-24T02:10:15;11.60;99.90
26537;DHT22;14204;51.262;5.488;2023-04-24T02:12:41;11.70;99.90
26537;DHT22;14204;51.262;5.488;2023-04-24T02:15:07;11.60;99.90
26537;DHT22;14204;51.262;5.488;2023-04-24T02:17:33;11.70;99.90
26537;DHT22;14204;51.262;5.488;2023-04-24T02:19:58;11.70;99.90
26537;DHT22;14204;51.262;5.488;2023-04-24T02:22:24;11.60;99.90
26537;DHT22;14204;51.262;5.488;2023-04-24T02:24:50;11.50;99.90
26537;DHT22;14204;51.262;5.488;2023-04-24T02:27:16;11.50;99.90
26537;DHT22;14204;51.262;5.488;2023-04-24T02:29:41;11.50;99.90
26537;DHT22;14204;51.262;5.488;2023-04-24T02:32:07;11.50;99.90
26537;DHT22;14204;51.262;5.488;2023-04-24T02:34:36;11.50;99.90
26537;DHT22;14204;51.262;5.488;2023-04-24T02:37:02;11.60;99.90
26537;DHT22;14204;51.262;5.488;2023-04-24T02:39:28;11.60;99.90
26537;DHT22;14204;51.262;5.488;2023-04-24T02:41:53;11.50;99.90
26537;DHT22;14204;51.262;5.488;2023-04-24T02:44:19;11.60;99.90
26537;DHT22;14204;51.262;5.488;2023-04-24T02:46:45;11.50;99.90
26537;DHT22;14204;51.262;5.488;2023-04-24T02:49:10;11.50;99.90
26537;DHT22;14204;51.262;5.488;2023-04-24T02:51:37;11.50;99.90
26537;DHT22;14204;51.262;5.488;2023-04-24T02:54:07;11.50;99.90
26537;DHT22;14204;51.262;5.488;2023-04-24T02:56:33;11.40;99.90
26537;DHT22;14204;51.262;5.488;2023-04-24T02:58:59;11.40;99.90
26537;DHT22;14204;51.262;5.488;2023-04-24T03:01:24;11.40;99.90
26537;DHT22;14204;51.262;5.488;2023-04-24T03:03:50;11.30;99.90
26537;DHT22;14204;51.262;5.488;2023-04-24T03:06:16;11.40;99.90
26537;DHT22;14204;51.262;5.488;2023-04-24T03:08:42;11.40;99.90
26537;DHT22;14204;51.262;5.488;2023-04-24T03:11:07;11.40;99.90
26537;DHT22;14204;51.262;5.488;2023-04-24T03:13:33;11.30;99.90
26537;DHT22;14204;51.262;5.488;2023-04-24T03:15:59;11.40;99.90
26537;DHT22;14204;51.262;5.488;2023-04-24T03:18:24;11.40;99.90
26537;DHT22;14204;51.262;5.488;2023-04-24T03:20:50;11.30;99.90
26537;DHT22;14204;51.262;5.488;2023-04-24T03:23:16;11.40;99.90
26537;DHT22;14204;51.262;5.488;2023-04-24T03:25:42;11.40;99.90
26537;DHT22;14204;51.262;5.488;2023-04-24T03:28:08;11.40;99.90
26537;DHT22;14204;51.262;5.488;2023-04-24T03:30:34;11.40;99.90
26537;DHT22;14204;51.262;5.488;2023-04-24T03:33:00;11.40;99.90
26537;DHT22;14204;51.262;5.488;2023-04-24T03:35:26;11.40;99.90
26537;DHT22;14204;51.262;5.488;2023-04-24T03:37:51;11.30;99.90
26537;DHT22;14204;51.262;5.488;2023-04-24T03:40:17;11.30;99.90
26537;DHT22;14204;51.262;5.488;2023-04-24T03:42:43;11.30;99.90
26537;DHT22;14204;51.262;5.488;2023-04-24T03:45:09;11.30;99.90
26537;DHT22;14204;51.262;5.488;2023-04-24T03:47:35;11.20;99.90
26537;DHT22;14204;51.262;5.488;2023-04-24T03:50:01;11.10;99.90
26537;DHT22;14204;51.262;5.488;2023-04-24T03:52:27;11.20;99.90
26537;DHT22;14204;51.262;5.488;2023-04-24T03:54:52;11.20;99.90
26537;DHT22;14204;51.262;5.488;2023-04-24T03:57:18;11.20;99.90
26537;DHT22;14204;51.262;5.488;2023-04-24T03:59:44;11.20;99.90
26537;DHT22;14204;51.262;5.488;2023-04-24T04:02:10;11.10;99.90
26537;DHT22;14204;51.262;5.488;2023-04-24T04:04:35;11.10;99.90
26537;DHT22;14204;51.262;5.488;2023-04-24T04:07:01;11.20;99.90
26537;DHT22;14204;51.262;5.488;2023-04-24T04:09:28;11.20;99.90
26537;DHT22;14204;51.262;5.488;2023-04-24T04:11:54;11.30;99.90
26537;DHT22;14204;51.262;5.488;2023-04-24T04:14:21;11.20;99.90
26537;DHT22;14204;51.262;5.488;2023-04-24T04:16:46;11.20;99.90
26537;DHT22;14204;51.262;5.488;2023-04-24T04:19:12;11.10;99.90
26537;DHT22;14204;51.262;5.488;2023-04-24T04:21:38;11.10;99.90
26537;DHT22;14204;51.262;5.488;2023-04-24T04:24:03;11.10;99.90
26537;DHT22;14204;51.262;5.488;2023-04-24T04:26:31;11.00;99.90
26537;DHT22;14204;51.262;5.488;2023-04-24T04:28:58;11.10;99.90
26537;DHT22;14204;51.262;5.488;2023-04-24T04:31:26;11.10;99.90
26537;DHT22;14204;51.262;5.488;2023-04-24T04:33:51;11.10;99.90
26537;DHT22;14204;51.262;5.488;2023-04-24T04:36:17;11.10;99.90
26537;DHT22;14204;51.262;5.488;2023-04-24T04:38:43;11.00;99.90
26537;DHT22;14204;51.262;5.488;2023-04-24T04:41:10;11.00;99.90
26537;DHT22;14204;51.262;5.488;2023-04-24T04:43:36;11.10;99.90
26537;DHT22;14204;51.262;5.488;2023-04-24T04:46:02;11.00;99.90
26537;DHT22;14204;51.262;5.488;2023-04-24T04:48:28;10.90;99.90
26537;DHT22;14204;51.262;5.488;2023-04-24T04:50:57;10.90;99.90
26537;DHT22;14204;51.262;5.488;2023-04-24T04:53:22;10.90;99.90
26537;DHT22;14204;51.262;5.488;2023-04-24T04:55:48;10.90;99.90
26537;DHT22;14204;51.262;5.488;2023-04-24T04:58:14;10.90;99.90
26537;DHT22;14204;51.262;5.488;2023-04-24T05:00:40;10.90;99.90
26537;DHT22;14204;51.262;5.488;2023-04-24T05:03:06;10.90;99.90
26537;DHT22;14204;51.262;5.488;2023-04-24T05:05:32;10.90;99.90
26537;DHT22;14204;51.262;5.488;2023-04-24T05:07:58;10.90;99.90
26537;DHT22;14204;51.262;5.488;2023-04-24T05:10:23;10.90;99.90
26537;DHT22;14204;51.262;5.488;2023-04-24T05:12:49;10.90;99.90
26537;DHT22;14204;51.262;5.488;2023-04-24T05:15:15;11.00;99.90
26537;DHT22;14204;51.262;5.488;2023-04-24T05:17:41;10.90;99.90
26537;DHT22;14204;51.262;5.488;2023-04-24T05:20:07;10.80;99.90
26537;DHT22;14204;51.262;5.488;2023-04-24T05:22:32;10.80;99.90
26537;DHT22;14204;51.262;5.488;2023-04-24T05:24:58;10.70;99.90
26537;DHT22;14204;51.262;5.488;2023-04-24T05:27:24;10.70;99.90
26537;DHT22;14204;51.262;5.488;2023-04-24T05:29:50;10.60;99.90
26537;DHT22;14204;51.262;5.488;2023-04-24T05:32:16;10.60;99.90
26537;DHT22;14204;51.262;5.488;2023-04-24T05:34:42;10.70;99.90
26537;DHT22;14204;51.262;5.488;2023-04-24T05:37:08;10.70;99.90
26537;DHT22;14204;51.262;5.488;2023-04-24T05:39:35;10.60;99.90
26537;DHT22;14204;51.262;5.488;2023-04-24T05:42:02;10.50;99.90
26537;DHT22;14204;51.262;5.488;2023-04-24T05:44:30;10.60;99.90
26537;DHT22;14204;51.262;5.488;2023-04-24T05:46:56;10.60;99.90
26537;DHT22;14204;51.262;5.488;2023-04-24T05:49:22;10.60;99.90
26537;DHT22;14204;51.262;5.488;2023-04-24T05:51:48;10.60;99.90
26537;DHT22;14204;51.262;5.488;2023-04-24T05:54:14;10.70;99.90
26537;DHT22;14204;51.262;5.488;2023-04-24T05:56:40;10.70;99.90
26537;DHT22;14204;51.262;5.488;2023-04-24T05:59:06;10.50;99.90
26537;DHT22;14204;51.262;5.488;2023-04-24T06:01:33;10.50;99.90
26537;DHT22;14204;51.262;5.488;2023-04-24T06:03:59;10.50;99.90
26537;DHT22;14204;51.262;5.488;2023-04-24T06:06:24;10.50;99.90
26537;DHT22;14204;51.262;5.488;2023-04-24T06:08:51;10.40;99.90
26537;DHT22;14204;51.262;5.488;2023-04-24T06:11:17;10.40;99.90
26537;DHT22;14204;51.262;5.488;2023-04-24T06:13:42;10.40;99.90
26537;DHT22;14204;51.262;5.488;2023-04-24T06:16:08;10.40;99.90
26537;DHT22;14204;51.262;5.488;2023-04-24T06:18:34;10.30;99.90
26537;DHT22;14204;51.262;5.488;2023-04-24T06:21:00;10.30;99.90
26537;DHT22;14204;51.262;5.488;2023-04-24T06:23:26;10.30;99.90
26537;DHT22;14204;51.262;5.488;2023-04-24T06:25:51;10.30;99.90
26537;DHT22;14204;51.262;5.488;2023-04-24T06:28:17;10.30;99.90
26537;DHT22;14204;51.262;5.488;2023-04-24T06:30:43;10.30;99.90
26537;DHT22;14204;51.262;5.488;2023-04-24T06:33:09;10.20;99.90
26537;DHT22;14204;51.262;5.488;2023-04-24T06:35:35;10.20;99.90
26537;DHT22;14204;51.262;5.488;2023-04-24T06:38:01;10.20;99.90
26537;DHT22;14204;51.262;5.488;2023-04-24T06:40:27;10.20;99.90
26537;DHT22;14204;51.262;5.488;2023-04-24T06:42:52;10.30;99.90
26537;DHT22;14204;51.262;5.488;2023-04-24T06:45:18;10.30;99.90
26537;DHT22;14204;51.262;5.488;2023-04-24T06:47:44;10.20;99.90
26537;DHT22;14204;51.262;5.488;2023-04-24T06:50:10;10.20;99.90
26537;DHT22;14204;51.262;5.488;2023-04-24T06:52:36;10.20;99.90
26537;DHT22;14204;51.262;5.488;2023-04-24T06:55:03;10.20;99.90
26537;DHT22;14204;51.262;5.488;2023-04-24T06:57:29;10.20;99.90
26537;DHT22;14204;51.262;5.488;2023-04-24T06:59:55;10.20;99.90
26537;DHT22;14204;51.262;5.488;2023-04-24T07:02:21;10.20;99.90
26537;DHT22;14204;51.262;5.488;2023-04-24T07:04:46;10.30;99.90
26537;DHT22;14204;51.262;5.488;2023-04-24T07:07:13;10.20;99.90
26537;DHT22;14204;51.262;5.488;2023-04-24T07:09:40;10.40;99.90
26537;DHT22;14204;51.262;5.488;2023-04-24T07:12:08;10.30;99.90
26537;DHT22;14204;51.262;5.488;2023-04-24T07:14:36;10.30;99.90
26537;DHT22;14204;51.262;5.488;2023-04-24T07:17:05;10.30;99.90
26537;DHT22;14204;51.262;5.488;2023-04-24T07:19:33;10.30;99.90
26537;DHT22;14204;51.262;5.488;2023-04-24T07:21:59;10.30;99.90
26537;DHT22;14204;51.262;5.488;2023-04-24T07:24:25;10.30;99.90
26537;DHT22;14204;51.262;5.488;2023-04-24T07:26:52;10.40;99.90
26537;DHT22;14204;51.262;5.488;2023-04-24T07:29:18;10.40;99.90
26537;DHT22;14204;51.262;5.488;2023-04-24T07:31:45;10.30;99.90
26537;DHT22;14204;51.262;5.488;2023-04-24T07:34:11;10.30;99.90
26537;DHT22;14204;51.262;5.488;2023-04-24T07:36:36;10.20;99.90
26537;DHT22;14204;51.262;5.488;2023-04-24T07:39:04;10.30;99.90
26537;DHT22;14204;51.262;5.488;2023-04-24T07:41:30;10.20;99.90
26537;DHT22;14204;51.262;5.488;2023-04-24T07:43:56;10.20;99.90
26537;DHT22;14204;51.262;5.488;2023-04-24T07:46:21;10.30;99.90
26537;DHT22;14204;51.262;5.488;2023-04-24T07:48:48;10.30;99.90
26537;DHT22;14204;51.262;5.488;2023-04-24T07:51:14;10.30;99.90
26537;DHT22;14204;51.262;5.488;2023-04-24T07:53:41;10.30;99.90
26537;DHT22;14204;51.262;5.488;2023-04-24T07:56:07;10.40;99.90
26537;DHT22;14204;51.262;5.488;2023-04-24T07:58:33;10.50;99.90
26537;DHT22;14204;51.262;5.488;2023-04-24T08:00:59;10.50;99.90
26537;DHT22;14204;51.262;5.488;2023-04-24T08:03:25;10.50;99.90
26537;DHT22;14204;51.262;5.488;2023-04-24T08:05:50;10.40;99.90
26537;DHT22;14204;51.262;5.488;2023-04-24T08:08:16;10.50;99.90
26537;DHT22;14204;51.262;5.488;2023-04-24T08:10:43;10.60;99.90
26537;DHT22;14204;51.262;5.488;2023-04-24T08:13:08;10.50;99.90
26537;DHT22;14204;51.262;5.488;2023-04-24T08:15:34;10.60;99.90
26537;DHT22;14204;51.262;5.488;2023-04-24T08:18:00;10.70;99.90
26537;DHT22;14204;51.262;5.488;2023-04-24T08:20:26;10.70;99.90
26537;DHT22;14204;51.262;5.488;2023-04-24T08:22:52;10.60;99.90
26537;DHT22;14204;51.262;5.488;2023-04-24T08:25:17;10.70;99.90
26537;DHT22;14204;51.262;5.488;2023-04-24T08:27:44;10.80;99.90
26537;DHT22;14204;51.262;5.488;2023-04-24T08:30:10;10.80;99.90
26537;DHT22;14204;51.262;5.488;2023-04-24T08:32:36;10.80;99.90
26537;DHT22;14204;51.262;5.488;2023-04-24T08:35:03;10.80;99.90
26537;DHT22;14204;51.262;5.488;2023-04-24T08:37:29;10.90;99.90
26537;DHT22;14204;51.262;5.488;2023-04-24T08:39:54;10.90;99.90
26537;DHT22;14204;51.262;5.488;2023-04-24T08:42:21;11.00;99.90
26537;DHT22;14204;51.262;5.488;2023-04-24T08:44:48;11.10;99.90
26537;DHT22;14204;51.262;5.488;2023-04-24T08:47:15;11.00;99.90
26537;DHT22;14204;51.262;5.488;2023-04-24T08:49:41;11.10;99.90
26537;DHT22;14204;51.262;5.488;2023-04-24T08:52:08;11.10;99.90
26537;DHT22;14204;51.262;5.488;2023-04-24T08:54:37;11.10;99.90
26537;DHT22;14204;51.262;5.488;2023-04-24T08:57:04;11.10;99.90
26537;DHT22;14204;51.262;5.488;2023-04-24T08:59:33;11.10;99.90
26537;DHT22;14204;51.262;5.488;2023-04-24T09:02:00;11.00;99.90
26537;DHT22;14204;51.262;5.488;2023-04-24T09:04:26;11.10;99.90
26537;DHT22;14204;51.262;5.488;2023-04-24T09:06:56;11.10;99.90
26537;DHT22;14204;51.262;5.488;2023-04-24T09:09:23;11.00;99.90
26537;DHT22;14204;51.262;5.488;2023-04-24T09:11:50;10.90;99.90
26537;DHT22;14204;51.262;5.488;2023-04-24T09:14:17;10.90;99.90
26537;DHT22;14204;51.262;5.488;2023-04-24T09:16:43;11.00;99.90
26537;DHT22;14204;51.262;5.488;2023-04-24T09:19:09;10.80;99.90
26537;DHT22;14204;51.262;5.488;2023-04-24T09:21:35;11.00;99.90
26537;DHT22;14204;51.262;5.488;2023-04-24T09:24:03;10.90;99.90
26537;DHT22;14204;51.262;5.488;2023-04-24T09:26:31;10.90;99.90
26537;DHT22;14204;51.262;5.488;2023-04-24T09:28:57;10.90;99.90
26537;DHT22;14204;51.262;5.488;2023-04-24T09:31:23;11.00;99.90
26537;DHT22;14204;51.262;5.488;2023-04-24T09:36:36;11.10;99.90
26537;DHT22;14204;51.262;5.488;2023-04-24T09:39:06;11.30;99.90
26537;DHT22;14204;51.262;5.488;2023-04-24T09:41:50;11.30;99.90
26537;DHT22;14204;51.262;5.488;2023-04-24T09:44:21;11.30;99.90
26537;DHT22;14204;51.262;5.488;2023-04-24T09:46:59;11.30;99.90
26537;DHT22;14204;51.262;5.488;2023-04-24T09:49:29;11.40;99.90
26537;DHT22;14204;51.262;5.488;2023-04-24T09:52:06;11.40;99.90
26537;DHT22;14204;51.262;5.488;2023-04-24T09:54:32;11.50;99.90
26537;DHT22;14204;51.262;5.488;2023-04-24T09:56:58;11.60;99.90
26537;DHT22;14204;51.262;5.488;2023-04-24T09:59:26;11.70;99.90
26537;DHT22;14204;51.262;5.488;2023-04-24T10:01:51;11.90;99.90
26537;DHT22;14204;51.262;5.488;2023-04-24T10:06:47;11.80;99.90
26537;DHT22;14204;51.262;5.488;2023-04-24T10:09:15;11.80;99.90
26537;DHT22;14204;51.262;5.488;2023-04-24T10:11:45;11.80;99.90
26537;DHT22;14204;51.262;5.488;2023-04-24T10:14:19;12.00;99.90
26537;DHT22;14204;51.262;5.488;2023-04-24T10:16:46;12.00;99.90
26537;DHT22;14204;51.262;5.488;2023-04-24T10:19:16;12.00;99.90
26537;DHT22;14204;51.262;5.488;2023-04-24T10:21:44;12.00;99.90
26537;DHT22;14204;51.262;5.488;2023-04-24T10:24:18;12.00;99.90
26537;DHT22;14204;51.262;5.488;2023-04-24T10:26:47;12.10;99.90
26537;DHT22;14204;51.262;5.488;2023-04-24T10:29:16;12.00;99.90
26537;DHT22;14204;51.262;5.488;2023-04-24T10:31:42;12.10;99.90
26537;DHT22;14204;51.262;5.488;2023-04-24T10:34:11;12.10;99.90
26537;DHT22;14204;51.262;5.488;2023-04-24T10:36:40;12.30;99.90
26537;DHT22;14204;51.262;5.488;2023-04-24T10:39:11;12.40;99.90
26537;DHT22;14204;51.262;5.488;2023-04-24T10:41:38;12.60;99.90
26537;DHT22;14204;51.262;5.488;2023-04-24T10:44:05;12.60;99.90
26537;DHT22;14204;51.262;5.488;2023-04-24T10:46:31;12.70;99.90
26537;DHT22;14204;51.262;5.488;2023-04-24T10:48:57;12.50;99.90
26537;DHT22;14204;51.262;5.488;2023-04-24T10:51:24;12.60;99.90
26537;DHT22;14204;51.262;5.488;2023-04-24T10:54:35;12.60;99.90
26537;DHT22;14204;51.262;5.488;2023-04-24T10:59:46;12.50;99.90
26537;DHT22;14204;51.262;5.488;2023-04-24T11:02:16;12.60;99.90
26537;DHT22;14204;51.262;5.488;2023-04-24T11:04:42;12.60;99.90
26537;DHT22;14204;51.262;5.488;2023-04-24T11:07:12;12.80;99.90
26537;DHT22;14204;51.262;5.488;2023-04-24T11:09:38;12.80;99.90
26537;DHT22;14204;51.262;5.488;2023-04-24T11:12:08;12.80;99.90
26537;DHT22;14204;51.262;5.488;2023-04-24T11:17:36;13.00;99.90
26537;DHT22;14204;51.262;5.488;2023-04-24T11:20:07;13.10;99.90
26537;DHT22;14204;51.262;5.488;2023-04-24T11:22:36;13.10;99.90
26537;DHT22;14204;51.262;5.488;2023-04-24T11:25:05;13.00;99.90
26537;DHT22;14204;51.262;5.488;2023-04-24T11:27:39;13.10;99.90
26537;DHT22;14204;51.262;5.488;2023-04-24T11:30:06;13.10;99.90
26537;DHT22;14204;51.262;5.488;2023-04-24T11:37:41;12.90;99.90
26537;DHT22;14204;51.262;5.488;2023-04-24T11:40:10;12.90;99.90
26537;DHT22;14204;51.262;5.488;2023-04-24T11:42:40;12.80;99.90
26537;DHT22;14204;51.262;5.488;2023-04-24T11:45:18;12.80;99.90
26537;DHT22;14204;51.262;5.488;2023-04-24T11:47:44;12.90;99.90
26537;DHT22;14204;51.262;5.488;2023-04-24T11:50:17;12.90;99.90
26537;DHT22;14204;51.262;5.488;2023-04-24T11:52:45;12.90;99.90
26537;DHT22;14204;51.262;5.488;2023-04-24T11:57:42;12.70;99.90
26537;DHT22;14204;51.262;5.488;2023-04-24T12:00:15;12.80;99.90
26537;DHT22;14204;51.262;5.488;2023-04-24T12:02:42;12.80;99.90
26537;DHT22;14204;51.262;5.488;2023-04-24T12:05:08;12.80;99.90
26537;DHT22;14204;51.262;5.488;2023-04-24T12:07:41;12.60;99.90
26537;DHT22;14204;51.262;5.488;2023-04-24T12:10:10;12.50;99.90
26537;DHT22;14204;51.262;5.488;2023-04-24T12:12:36;12.50;99.90
26537;DHT22;14204;51.262;5.488;2023-04-24T12:15:07;12.50;99.90
26537;DHT22;14204;51.262;5.488;2023-04-24T12:17:34;12.50;99.90
26537;DHT22;14204;51.262;5.488;2023-04-24T12:20:05;12.50;99.90
26537;DHT22;14204;51.262;5.488;2023-04-24T12:25:15;12.50;99.90
26537;DHT22;14204;51.262;5.488;2023-04-24T12:27:41;12.40;99.90
26537;DHT22;14204;51.262;5.488;2023-04-24T12:30:14;12.50;99.90
26537;DHT22;14204;51.262;5.488;2023-04-24T12:32:42;12.50;99.90
26537;DHT22;14204;51.262;5.488;2023-04-24T12:35:08;12.50;99.90
26537;DHT22;14204;51.262;5.488;2023-04-24T12:37:34;12.50;99.90
26537;DHT22;14204;51.262;5.488;2023-04-24T12:40:07;12.60;99.90
26537;DHT22;14204;51.262;5.488;2023-04-24T12:42:34;12.50;99.90
26537;DHT22;14204;51.262;5.488;2023-04-24T12:45:05;12.60;99.90
26537;DHT22;14204;51.262;5.488;2023-04-24T12:47:32;12.70;99.90
26537;DHT22;14204;51.262;5.488;2023-04-24T12:49:59;12.80;99.90
26537;DHT22;14204;51.262;5.488;2023-04-24T12:52:26;13.00;99.90
26537;DHT22;14204;51.262;5.488;2023-04-24T12:54:59;12.90;99.90
26537;DHT22;14204;51.262;5.488;2023-04-24T12:57:27;12.90;99.90
26537;DHT22;14204;51.262;5.488;2023-04-24T12:59:55;12.80;99.90
26537;DHT22;14204;51.262;5.488;2023-04-24T13:02:22;12.80;99.90
26537;DHT22;14204;51.262;5.488;2023-04-24T13:04:48;12.80;99.90
26537;DHT22;14204;51.262;5.488;2023-04-24T13:07:15;12.90;99.90
26537;DHT22;14204;51.262;5.488;2023-04-24T13:09:42;13.10;99.90
26537;DHT22;14204;51.262;5.488;2023-04-24T13:12:08;13.30;99.90
26537;DHT22;14204;51.262;5.488;2023-04-24T13:14:34;13.20;99.90
26537;DHT22;14204;51.262;5.488;2023-04-24T13:17:00;13.10;99.90
26537;DHT22;14204;51.262;5.488;2023-04-24T13:19:27;13.20;99.90
26537;DHT22;14204;51.262;5.488;2023-04-24T13:21:55;13.30;99.90
26537;DHT22;14204;51.262;5.488;2023-04-24T13:24:21;13.30;99.90
26537;DHT22;14204;51.262;5.488;2023-04-24T13:26:52;13.20;99.90
26537;DHT22;14204;51.262;5.488;2023-04-24T13:29:18;13.20;99.90
26537;DHT22;14204;51.262;5.488;2023-04-24T13:31:46;13.20;99.90
26537;DHT22;14204;51.262;5.488;2023-04-24T13:34:12;13.30;99.90
26537;DHT22;14204;51.262;5.488;2023-04-24T13:36:38;13.50;99.90
26537;DHT22;14204;51.262;5.488;2023-04-24T13:39:05;13.70;99.90
26537;DHT22;14204;51.262;5.488;2023-04-24T13:41:32;13.70;99.90
26537;DHT22;14204;51.262;5.488;2023-04-24T13:43:58;13.70;99.90
26537;DHT22;14204;51.262;5.488;2023-04-24T13:46:24;13.60;99.90
26537;DHT22;14204;51.262;5.488;2023-04-24T13:48:49;13.60;99.90
26537;DHT22;14204;51.262;5.488;2023-04-24T13:51:15;13.90;99.90
26537;DHT22;14204;51.262;5.488;2023-04-24T13:53:41;13.90;99.90
26537;DHT22;14204;51.262;5.488;2023-04-24T13:56:07;13.90;99.90
26537;DHT22;14204;51.262;5.488;2023-04-24T13:58:33;14.00;99.90
26537;DHT22;14204;51.262;5.488;2023-04-24T14:00:59;14.00;99.90
26537;DHT22;14204;51.262;5.488;2023-04-24T14:03:25;13.90;99.90
26537;DHT22;14204;51.262;5.488;2023-04-24T14:05:51;13.70;99.90
26537;DHT22;14204;51.262;5.488;2023-04-24T14:08:16;13.60;99.90
26537;DHT22;14204;51.262;5.488;2023-04-24T14:10:42;13.50;99.90
26537;DHT22;14204;51.262;5.488;2023-04-24T14:13:08;13.50;99.90
26537;DHT22;14204;51.262;5.488;2023-04-24T14:15:35;13.40;99.90
26537;DHT22;14204;51.262;5.488;2023-04-24T14:18:01;13.40;99.90
26537;DHT22;14204;51.262;5.488;2023-04-24T14:20:28;13.50;99.90
26537;DHT22;14204;51.262;5.488;2023-04-24T14:22:54;13.90;99.90
26537;DHT22;14204;51.262;5.488;2023-04-24T14:25:20;14.10;99.90
26537;DHT22;14204;51.262;5.488;2023-04-24T14:27:45;14.20;99.90
26537;DHT22;14204;51.262;5.488;2023-04-24T14:30:12;14.30;99.90
26537;DHT22;14204;51.262;5.488;2023-04-24T14:32:39;14.30;99.90
26537;DHT22;14204;51.262;5.488;2023-04-24T14:35:06;14.30;99.90
26537;DHT22;14204;51.262;5.488;2023-04-24T14:37:32;14.30;99.90
26537;DHT22;14204;51.262;5.488;2023-04-24T14:39:58;14.30;99.90
26537;DHT22;14204;51.262;5.488;2023-04-24T14:42:24;14.20;99.90
26537;DHT22;14204;51.262;5.488;2023-04-24T14:44:50;14.10;99.90
26537;DHT22;14204;51.262;5.488;2023-04-24T14:47:16;14.10;99.90
26537;DHT22;14204;51.262;5.488;2023-04-24T14:49:47;14.20;99.90
26537;DHT22;14204;51.262;5.488;2023-04-24T14:52:13;14.10;99.90
26537;DHT22;14204;51.262;5.488;2023-04-24T14:54:39;14.10;99.90
26537;DHT22;14204;51.262;5.488;2023-04-24T14:57:05;14.00;99.90
26537;DHT22;14204;51.262;5.488;2023-04-24T14:59:31;14.00;99.90
26537;DHT22;14204;51.262;5.488;2023-04-24T15:01:57;14.00;99.90
26537;DHT22;14204;51.262;5.488;2023-04-24T15:04:24;14.10;99.90
26537;DHT22;14204;51.262;5.488;2023-04-24T15:06:53;14.20;99.90
26537;DHT22;14204;51.262;5.488;2023-04-24T15:09:24;14.20;99.90
26537;DHT22;14204;51.262;5.488;2023-04-24T15:11:50;14.30;99.90
26537;DHT22;14204;51.262;5.488;2023-04-24T15:14:17;14.30;99.90
26537;DHT22;14204;51.262;5.488;2023-04-24T15:16:43;14.30;99.90
26537;DHT22;14204;51.262;5.488;2023-04-24T15:19:09;14.20;99.90
26537;DHT22;14204;51.262;5.488;2023-04-24T15:21:36;14.10;99.90
26537;DHT22;14204;51.262;5.488;2023-04-24T15:24:04;14.10;99.90
26537;DHT22;14204;51.262;5.488;2023-04-24T15:26:30;14.00;99.90
26537;DHT22;14204;51.262;5.488;2023-04-24T15:28:55;13.90;99.90
26537;DHT22;14204;51.262;5.488;2023-04-24T15:31:21;13.90;99.90
26537;DHT22;14204;51.262;5.488;2023-04-24T15:33:49;13.90;99.90
26537;DHT22;14204;51.262;5.488;2023-04-24T15:36:15;13.80;99.90
26537;DHT22;14204;51.262;5.488;2023-04-24T15:38:43;13.90;99.90
26537;DHT22;14204;51.262;5.488;2023-04-24T15:41:09;13.90;99.90
26537;DHT22;14204;51.262;5.488;2023-04-24T15:43:35;13.90;99.90
26537;DHT22;14204;51.262;5.488;2023-04-24T15:46:01;13.90;99.90
26537;DHT22;14204;51.262;5.488;2023-04-24T15:48:28;13.80;99.90